Time;durP1;ratioP1;P1;durP2;ratioP2;P2;SDS_P1;SDS_P2;PMS_P1;PMS_P2;Temp;Humidity;BMP_temperature;BMP_pressure;BME280_temperature;BME280_humidity;BME280_pressure;Samples;Min_cycle;Max_cycle;Signal;HPM_P1;HPM_P2
2021/07/31 00:00:31;0.00;0.00;0.62;0.00;0.00;0.62;2.57;1.40;;;27.60;31.30;;;;;;2265320;61;20357;-55
2021/07/31 00:02:58;0.00;0.00;0.62;0.00;0.00;0.62;2.40;2.10;;;27.70;31.40;;;;;;2265539;61;20445;-59
2021/07/31 00:05:24;0.00;0.00;0.62;0.00;0.00;0.62;3.20;1.80;;;27.70;31.40;;;;;;2265284;61;20378;-56
2021/07/31 00:07:51;0.00;0.00;0.62;0.00;0.00;0.62;3.30;2.17;;;27.70;31.40;;;;;;2265457;61;20362;-53
2021/07/31 00:11:00;0.00;0.00;0.62;0.00;0.00;0.62;2.43;1.80;;;27.70;31.30;;;;;;2265729;61;20353;-53
2021/07/31 00:13:28;0.00;0.00;0.62;0.00;0.00;0.62;2.00;1.70;;;27.70;31.30;;;;;;2264596;61;20358;-57
2021/07/31 00:15:54;0.00;0.00;0.62;0.00;0.00;0.62;2.10;1.90;;;27.70;31.30;;;;;;2264846;61;20374;-56
2021/07/31 00:18:21;0.00;0.00;0.62;0.00;0.00;0.62;2.10;1.50;;;27.60;31.20;;;;;;2265723;61;20350;-54
2021/07/31 00:20:48;0.00;0.00;0.62;0.00;0.00;0.62;3.30;1.77;;;27.60;31.10;;;;;;2264891;61;20675;-56
2021/07/31 00:23:14;0.00;0.00;0.62;0.00;0.00;0.62;2.17;1.50;;;27.60;31.10;;;;;;2265372;61;20368;-57
2021/07/31 00:25:41;0.00;0.00;0.62;0.00;0.00;0.62;1.93;1.73;;;27.60;31.10;;;;;;2265612;61;20516;-54
2021/07/31 00:28:09;0.00;0.00;0.62;0.00;0.00;0.62;2.83;1.60;;;27.60;31.00;;;;;;2264596;61;20354;-58
2021/07/31 00:30:38;0.00;0.00;0.62;0.00;0.00;0.62;2.10;1.40;;;27.60;30.90;;;;;;2265527;61;20628;-57
2021/07/31 00:33:04;0.00;0.00;0.62;0.00;0.00;0.62;2.50;1.50;;;27.50;30.90;;;;;;2265617;61;20572;-54
2021/07/31 00:35:31;0.00;0.00;0.62;0.00;0.00;0.62;2.10;1.60;;;27.50;30.90;;;;;;2264580;61;20594;-56
2021/07/31 00:37:58;0.00;0.00;0.62;0.00;0.00;0.62;2.03;1.43;;;27.50;30.90;;;;;;2265184;61;20408;-54
2021/07/31 00:40:24;0.00;0.00;0.62;0.00;0.00;0.62;2.00;1.43;;;27.50;31.00;;;;;;2266077;61;20445;-53
2021/07/31 00:42:52;0.00;0.00;0.62;0.00;0.00;0.62;2.63;1.50;;;27.40;30.90;;;;;;2265796;61;20356;-58
2021/07/31 00:45:20;0.00;0.00;0.62;0.00;0.00;0.62;2.63;1.67;;;27.40;31.00;;;;;;2266417;61;20416;-52
2021/07/31 00:47:47;0.00;0.00;0.62;0.00;0.00;0.62;2.37;1.83;;;27.40;31.10;;;;;;2266126;61;20361;-54
2021/07/31 00:50:14;0.00;0.00;0.62;0.00;0.00;0.62;3.13;2.00;;;27.40;31.10;;;;;;2265640;61;20441;-55
2021/07/31 00:52:42;0.00;0.00;0.62;0.00;0.00;0.62;1.93;1.73;;;27.30;31.10;;;;;;2266439;61;20350;-53
2021/07/31 00:55:12;0.00;0.00;0.62;0.00;0.00;0.62;3.20;1.40;;;27.30;31.20;;;;;;2265502;61;20377;-58
2021/07/31 00:57:41;0.00;0.00;0.62;0.00;0.00;0.62;3.17;2.23;;;27.30;31.40;;;;;;2265239;61;20417;-55
2021/07/31 01:00:24;0.00;0.00;0.62;0.00;0.00;0.62;2.40;1.80;;;27.20;31.40;;;;;;2265383;61;20588;-57
2021/07/31 01:02:51;0.00;0.00;0.62;0.00;0.00;0.62;6.40;1.67;;;27.20;31.50;;;;;;2265722;61;20354;-54
2021/07/31 01:05:18;0.00;0.00;0.62;0.00;0.00;0.62;2.07;1.50;;;27.20;31.50;;;;;;2265274;61;20373;-57
2021/07/31 01:07:45;0.00;0.00;0.62;0.00;0.00;0.62;4.30;1.70;;;27.20;31.50;;;;;;2265999;61;20354;-52
2021/07/31 01:10:13;0.00;0.00;0.62;0.00;0.00;0.62;3.47;1.80;;;27.10;31.40;;;;;;2265720;61;20939;-55
2021/07/31 01:12:43;0.00;0.00;0.62;0.00;0.00;0.62;3.60;1.60;;;27.10;31.40;;;;;;2265171;61;20346;-52
2021/07/31 01:15:11;0.00;0.00;0.62;0.00;0.00;0.62;3.80;1.60;;;27.10;31.40;;;;;;2265441;61;20382;-54
2021/07/31 01:17:39;0.00;0.00;0.62;0.00;0.00;0.62;4.63;1.70;;;27.00;31.40;;;;;;2265828;61;20441;-56
2021/07/31 01:20:08;0.00;0.00;0.62;0.00;0.00;0.62;3.00;1.47;;;27.00;31.40;;;;;;2265002;61;20362;-54
2021/07/31 01:22:36;0.00;0.00;0.62;0.00;0.00;0.62;2.47;1.63;;;27.00;31.40;;;;;;2265265;61;20590;-51
2021/07/31 01:25:10;0.00;0.00;0.62;0.00;0.00;0.62;3.70;2.20;;;27.00;31.40;;;;;;2265766;61;20377;-54
2021/07/31 01:27:40;0.00;0.00;0.62;0.00;0.00;0.62;2.90;1.77;;;26.90;31.30;;;;;;2265239;61;20408;-56
2021/07/31 01:30:08;0.00;0.00;0.62;0.00;0.00;0.62;1.90;1.50;;;26.90;31.20;;;;;;2265711;61;20354;-53
2021/07/31 01:32:35;0.00;0.00;0.62;0.00;0.00;0.62;3.00;2.00;;;26.90;31.10;;;;;;2265750;61;20361;-57
2021/07/31 01:35:02;0.00;0.00;0.62;0.00;0.00;0.62;3.50;1.60;;;26.90;31.00;;;;;;2265556;61;20385;-50
2021/07/31 01:37:31;0.00;0.00;0.62;0.00;0.00;0.62;2.63;1.50;;;26.80;31.00;;;;;;2265336;61;20386;-54
2021/07/31 01:40:00;0.00;0.00;0.62;0.00;0.00;0.62;2.37;1.67;;;26.80;30.90;;;;;;2265549;61;20358;-53
2021/07/31 01:42:30;0.00;0.00;0.62;0.00;0.00;0.62;2.83;1.80;;;26.70;30.90;;;;;;2265087;61;20368;-53
2021/07/31 01:44:57;0.00;0.00;0.62;0.00;0.00;0.62;4.17;1.87;;;26.70;30.90;;;;;;2265242;61;20350;-51
2021/07/31 01:47:24;0.00;0.00;0.62;0.00;0.00;0.62;2.13;1.57;;;26.70;31.10;;;;;;2265634;61;20389;-50
2021/07/31 01:49:51;0.00;0.00;0.62;0.00;0.00;0.62;2.60;1.57;;;26.70;31.20;;;;;;2265238;61;20358;-54
2021/07/31 01:52:17;0.00;0.00;0.62;0.00;0.00;0.62;5.13;1.70;;;26.60;31.00;;;;;;2265143;61;20598;-53
2021/07/31 01:54:45;0.00;0.00;0.62;0.00;0.00;0.62;2.53;1.67;;;26.60;31.10;;;;;;2266153;61;20354;-53
2021/07/31 01:57:15;0.00;0.00;0.62;0.00;0.00;0.62;6.07;1.63;;;26.60;31.00;;;;;;2265163;61;20586;-53
2021/07/31 02:00:00;0.00;0.00;0.62;0.00;0.00;0.62;2.33;1.60;;;26.50;30.80;;;;;;2265507;61;20362;-53
2021/07/31 02:02:41;0.00;0.00;0.62;0.00;0.00;0.62;3.10;1.40;;;26.50;30.80;;;;;;2266222;61;20350;-52
2021/07/31 02:05:10;0.00;0.00;0.62;0.00;0.00;0.62;3.00;1.83;;;26.40;30.60;;;;;;2265107;61;20385;-50
2021/07/31 02:07:57;0.00;0.00;0.62;0.00;0.00;0.62;4.73;1.70;;;26.40;30.60;;;;;;2265321;61;20369;-55
2021/07/31 02:10:25;0.00;0.00;0.62;0.00;0.00;0.62;3.33;1.93;;;26.40;30.60;;;;;;2265144;61;20354;-53
2021/07/31 02:12:55;0.00;0.00;0.62;0.00;0.00;0.62;5.13;1.90;;;26.30;30.50;;;;;;2265223;61;20358;-52
2021/07/31 02:15:28;0.00;0.00;0.62;0.00;0.00;0.62;2.57;1.40;;;26.30;30.50;;;;;;2265409;61;20735;-53
2021/07/31 02:17:59;0.00;0.00;0.62;0.00;0.00;0.62;6.43;1.73;;;26.30;30.50;;;;;;2265219;61;20395;-54
2021/07/31 02:20:26;0.00;0.00;0.62;0.00;0.00;0.62;3.07;2.10;;;26.30;30.60;;;;;;2265198;61;20699;-54
2021/07/31 02:23:00;0.00;0.00;0.62;0.00;0.00;0.62;4.10;1.60;;;26.20;30.50;;;;;;2265193;61;20366;-50
2021/07/31 02:25:45;0.00;0.00;0.62;0.00;0.00;0.62;6.60;1.70;;;26.20;30.50;;;;;;2265687;61;20370;-51
2021/07/31 02:28:51;0.00;0.00;0.62;0.00;0.00;0.62;1.93;1.20;;;26.20;30.50;;;;;;2264318;61;20396;-51
2021/07/31 02:31:18;0.00;0.00;0.62;0.00;0.00;0.62;3.33;1.73;;;26.10;30.50;;;;;;2265609;61;20568;-52
2021/07/31 02:33:49;0.00;0.00;0.62;0.00;0.00;0.62;7.60;1.73;;;26.10;30.60;;;;;;2265399;61;20354;-50
2021/07/31 02:36:18;0.00;0.00;0.62;0.00;0.00;0.62;4.00;1.90;;;26.00;30.50;;;;;;2265579;61;20370;-52
2021/07/31 02:39:14;0.00;0.00;0.62;0.00;0.00;0.62;2.47;1.50;;;26.00;30.50;;;;;;2263747;61;20400;-48
2021/07/31 02:41:41;0.00;0.00;0.62;0.00;0.00;0.62;2.47;1.50;;;26.00;30.60;;;;;;2265296;61;20350;-54
2021/07/31 02:44:11;0.00;0.00;0.62;0.00;0.00;0.62;6.00;1.43;;;25.90;30.60;;;;;;2261961;61;20698;-51
2021/07/31 02:46:38;0.00;0.00;0.62;0.00;0.00;0.62;2.57;1.30;;;25.90;30.60;;;;;;2265439;61;20381;-52
2021/07/31 02:49:05;0.00;0.00;0.62;0.00;0.00;0.62;3.10;1.43;;;25.90;30.60;;;;;;2261593;61;20361;-54
2021/07/31 02:51:33;0.00;0.00;0.62;0.00;0.00;0.62;2.73;1.30;;;25.80;30.60;;;;;;2265610;61;20583;-50
2021/07/31 02:54:12;0.00;0.00;0.62;0.00;0.00;0.62;4.03;1.90;;;25.80;30.50;;;;;;2265403;61;20358;-53
2021/07/31 02:56:40;0.00;0.00;0.62;0.00;0.00;0.62;4.80;1.40;;;25.80;30.50;;;;;;2264923;61;20377;-52
2021/07/31 02:59:13;0.00;0.00;0.62;0.00;0.00;0.62;2.50;1.20;;;25.70;30.50;;;;;;2265095;61;20362;-54
2021/07/31 03:01:41;0.00;0.00;0.62;0.00;0.00;0.62;4.80;1.73;;;25.70;30.50;;;;;;2265233;61;20358;-52
2021/07/31 03:04:07;0.00;0.00;0.62;0.00;0.00;0.62;2.27;1.60;;;25.70;30.50;;;;;;2265445;61;20388;-50
2021/07/31 03:06:35;0.00;0.00;0.62;0.00;0.00;0.62;3.23;1.23;;;25.60;30.40;;;;;;2264975;61;20389;-50
2021/07/31 03:09:05;0.00;0.00;0.62;0.00;0.00;0.62;2.00;1.33;;;25.60;30.40;;;;;;2262237;61;20350;-52
2021/07/31 03:11:34;0.00;0.00;0.62;0.00;0.00;0.62;3.43;1.40;;;25.50;30.30;;;;;;2264786;61;20358;-50
2021/07/31 03:14:01;0.00;0.00;0.62;0.00;0.00;0.62;4.27;1.70;;;25.50;30.30;;;;;;2265064;61;20687;-48
2021/07/31 03:16:33;0.00;0.00;0.62;0.00;0.00;0.62;3.80;1.60;;;25.50;30.30;;;;;;2265491;61;20373;-54
2021/07/31 03:19:05;0.00;0.00;0.62;0.00;0.00;0.62;2.40;1.37;;;25.50;30.30;;;;;;2264843;61;20444;-53
2021/07/31 03:21:32;0.00;0.00;0.62;0.00;0.00;0.62;3.60;1.40;;;25.40;30.30;;;;;;2264885;61;20612;-52
2021/07/31 03:24:12;0.00;0.00;0.62;0.00;0.00;0.62;2.80;1.63;;;25.40;30.30;;;;;;2265375;61;20354;-53
2021/07/31 03:26:39;0.00;0.00;0.62;0.00;0.00;0.62;2.23;1.50;;;25.40;30.90;;;;;;2264929;61;20382;-50
2021/07/31 03:29:10;0.00;0.00;0.62;0.00;0.00;0.62;2.30;1.33;;;25.40;30.30;;;;;;2265033;61;20395;-52
2021/07/31 03:31:38;0.00;0.00;0.62;0.00;0.00;0.62;3.60;1.40;;;25.30;30.20;;;;;;2265686;61;20408;-53
2021/07/31 03:34:05;0.00;0.00;0.62;0.00;0.00;0.62;2.30;1.50;;;25.30;30.20;;;;;;2264970;61;20398;-53
2021/07/31 03:36:32;0.00;0.00;0.62;0.00;0.00;0.62;6.20;1.73;;;25.30;30.20;;;;;;2264978;61;20366;-52
2021/07/31 03:39:07;0.00;0.00;0.62;0.00;0.00;0.62;2.90;1.50;;;25.30;30.20;;;;;;2264981;61;20357;-53
2021/07/31 03:41:37;0.00;0.00;0.62;0.00;0.00;0.62;2.90;1.70;;;25.20;30.20;;;;;;2265464;61;20436;-50
2021/07/31 03:44:06;0.00;0.00;0.62;0.00;0.00;0.62;3.90;1.87;;;25.20;30.30;;;;;;2264926;61;20408;-48
2021/07/31 03:46:43;0.00;0.00;0.62;0.00;0.00;0.62;1.70;1.10;;;25.20;30.40;;;;;;2264941;61;20389;-52
2021/07/31 03:49:11;0.00;0.00;0.62;0.00;0.00;0.62;3.87;1.63;;;25.20;30.40;;;;;;2265132;61;20588;-52
2021/07/31 03:51:39;0.00;0.00;0.62;0.00;0.00;0.62;3.33;1.30;;;25.20;30.30;;;;;;2265320;61;20717;-55
2021/07/31 03:54:07;0.00;0.00;0.62;0.00;0.00;0.62;3.30;1.57;;;25.10;30.20;;;;;;2264903;61;20385;-53
2021/07/31 03:56:34;0.00;0.00;0.62;0.00;0.00;0.62;3.80;1.50;;;25.10;30.30;;;;;;2265436;61;20891;-55
2021/07/31 03:59:06;0.00;0.00;0.62;0.00;0.00;0.62;2.87;1.30;;;25.10;30.30;;;;;;2264871;61;20678;-50
2021/07/31 04:01:33;0.00;0.00;0.62;0.00;0.00;0.62;3.37;1.53;;;25.10;30.30;;;;;;2264841;61;20632;-52
2021/07/31 04:04:06;0.00;0.00;0.62;0.00;0.00;0.62;5.43;1.87;;;25.10;30.30;;;;;;2264999;61;20357;-53
2021/07/31 04:06:33;0.00;0.00;0.62;0.00;0.00;0.62;3.23;1.57;;;25.00;30.30;;;;;;2265351;61;20384;-52
2021/07/31 04:09:23;0.00;0.00;0.62;0.00;0.00;0.62;2.87;1.50;;;25.00;30.30;;;;;;2259958;61;20395;-50
2021/07/31 04:12:08;0.00;0.00;0.62;0.00;0.00;0.62;2.00;1.20;;;25.00;30.40;;;;;;2265530;61;20349;-53
2021/07/31 04:15:09;0.00;0.00;0.62;0.00;0.00;0.62;2.90;1.33;;;25.00;30.40;;;;;;2260987;61;20392;-53
2021/07/31 04:17:37;0.00;0.00;0.62;0.00;0.00;0.62;2.30;1.30;;;24.90;30.40;;;;;;2265034;61;20368;-50
2021/07/31 04:20:07;0.00;0.00;0.62;0.00;0.00;0.62;3.40;1.57;;;24.90;30.40;;;;;;2264799;61;20354;-54
2021/07/31 04:22:35;0.00;0.00;0.62;0.00;0.00;0.62;2.17;1.33;;;24.90;30.50;;;;;;2265242;61;20726;-51
2021/07/31 04:25:02;0.00;0.00;0.62;0.00;0.00;0.62;6.27;1.40;;;24.90;30.50;;;;;;2264485;61;20461;-53
2021/07/31 04:27:30;0.00;0.00;0.62;0.00;0.00;0.62;4.27;2.20;;;24.90;30.60;;;;;;2265346;61;20378;-50
2021/07/31 04:29:56;0.00;0.00;0.62;0.00;0.00;0.62;3.60;1.73;;;24.80;30.50;;;;;;2265548;61;20728;-53
2021/07/31 04:32:23;0.00;0.00;0.62;0.00;0.00;0.62;3.30;1.47;;;24.80;30.50;;;;;;2265045;61;20354;-48
2021/07/31 04:34:49;0.00;0.00;0.62;0.00;0.00;0.62;2.00;1.37;;;24.80;30.60;;;;;;2264944;61;20354;-56
2021/07/31 04:37:17;0.00;0.00;0.62;0.00;0.00;0.62;5.43;1.90;;;24.80;30.50;;;;;;2265608;61;20425;-50
2021/07/31 04:39:44;0.00;0.00;0.62;0.00;0.00;0.62;3.93;1.50;;;24.80;30.60;;;;;;2265101;61;20667;-56
2021/07/31 04:42:11;0.00;0.00;0.62;0.00;0.00;0.62;4.37;1.40;;;24.80;30.60;;;;;;2265435;61;20353;-56
2021/07/31 04:44:37;0.00;0.00;0.62;0.00;0.00;0.62;3.00;1.40;;;24.70;30.50;;;;;;2265035;61;20365;-49
2021/07/31 04:47:04;0.00;0.00;0.62;0.00;0.00;0.62;1.80;1.23;;;24.70;30.50;;;;;;2264908;61;20393;-54
2021/07/31 04:49:34;0.00;0.00;0.62;0.00;0.00;0.62;4.80;2.00;;;24.70;30.60;;;;;;2265224;61;20675;-51
2021/07/31 04:52:01;0.00;0.00;0.62;0.00;0.00;0.62;1.90;1.20;;;24.70;30.70;;;;;;2265438;61;20578;-51
2021/07/31 04:54:30;0.00;0.00;0.62;0.00;0.00;0.62;2.07;1.57;;;24.70;30.70;;;;;;2265007;61;20354;-55
2021/07/31 04:56:57;0.00;0.00;0.62;0.00;0.00;0.62;1.87;1.13;;;24.70;30.80;;;;;;2265430;61;20376;-54
2021/07/31 04:59:23;0.00;0.00;0.62;0.00;0.00;0.62;2.63;1.50;;;24.70;30.80;;;;;;2265300;61;20628;-49
2021/07/31 05:01:50;0.00;0.00;0.62;0.00;0.00;0.62;2.77;1.37;;;24.60;30.80;;;;;;2264885;61;20443;-50
2021/07/31 05:04:17;0.00;0.00;0.62;0.00;0.00;0.62;2.53;1.30;;;24.60;30.80;;;;;;2265626;61;20354;-52
2021/07/31 05:06:43;0.00;0.00;0.62;0.00;0.00;0.62;3.17;1.50;;;24.60;30.80;;;;;;2265222;61;20722;-50
2021/07/31 05:09:10;0.00;0.00;0.62;0.00;0.00;0.62;2.20;1.50;;;24.60;30.80;;;;;;2264938;61;20364;-55
2021/07/31 05:11:38;0.00;0.00;0.62;0.00;0.00;0.62;1.87;1.40;;;24.60;30.90;;;;;;2265423;61;20456;-51
2021/07/31 05:14:04;0.00;0.00;0.62;0.00;0.00;0.62;3.80;1.40;;;24.60;30.90;;;;;;2265215;61;20401;-53
2021/07/31 05:16:31;0.00;0.00;0.62;0.00;0.00;0.62;4.83;1.53;;;24.60;31.00;;;;;;2264998;61;20424;-56
2021/07/31 05:18:57;0.00;0.00;0.62;0.00;0.00;0.62;2.67;1.70;;;24.60;31.00;;;;;;2265437;61;20365;-55
2021/07/31 05:21:24;0.00;0.00;0.62;0.00;0.00;0.62;3.80;1.97;;;24.60;31.00;;;;;;2265249;61;20700;-54
2021/07/31 05:23:50;0.00;0.00;0.62;0.00;0.00;0.62;2.63;1.40;;;24.60;31.10;;;;;;2264485;61;20376;-53
2021/07/31 05:26:17;0.00;0.00;0.62;0.00;0.00;0.62;2.80;1.50;;;24.60;31.10;;;;;;2266020;61;20465;-56
2021/07/31 05:28:45;0.00;0.00;0.62;0.00;0.00;0.62;2.43;1.87;;;24.60;31.20;;;;;;2265961;61;20355;-58
2021/07/31 05:31:19;0.00;0.00;0.62;0.00;0.00;0.62;1.83;1.30;;;24.60;31.20;;;;;;2265796;61;20358;-53
2021/07/31 05:33:46;0.00;0.00;0.62;0.00;0.00;0.62;2.73;1.80;;;24.60;31.30;;;;;;2266168;61;20357;-51
2021/07/31 05:36:13;0.00;0.00;0.62;0.00;0.00;0.62;2.73;1.37;;;24.60;31.30;;;;;;2265825;61;20380;-53
2021/07/31 05:38:39;0.00;0.00;0.62;0.00;0.00;0.62;1.80;1.47;;;24.60;31.30;;;;;;2265664;61;20350;-57
2021/07/31 05:41:11;0.00;0.00;0.62;0.00;0.00;0.62;3.10;1.50;;;24.60;31.30;;;;;;2265962;61;20358;-55
2021/07/31 05:43:38;0.00;0.00;0.62;0.00;0.00;0.62;6.30;1.53;;;24.60;31.30;;;;;;2265839;61;20439;-56
2021/07/31 05:46:05;0.00;0.00;0.62;0.00;0.00;0.62;3.30;1.60;;;24.60;31.40;;;;;;2265718;61;20381;-55
2021/07/31 05:48:32;0.00;0.00;0.62;0.00;0.00;0.62;3.33;2.00;;;24.60;31.40;;;;;;2266165;61;20396;-54
2021/07/31 05:50:58;0.00;0.00;0.62;0.00;0.00;0.62;3.60;1.50;;;24.60;31.40;;;;;;2265751;61;20358;-51
2021/07/31 05:53:26;0.00;0.00;0.62;0.00;0.00;0.62;4.53;2.10;;;24.60;31.50;;;;;;2265721;61;20551;-51
2021/07/31 05:55:54;0.00;0.00;0.62;0.00;0.00;0.62;3.40;1.70;;;24.60;31.50;;;;;;2265994;61;20439;-54
2021/07/31 05:58:21;0.00;0.00;0.62;0.00;0.00;0.62;2.70;1.67;;;24.60;31.50;;;;;;2265781;61;20349;-55
2021/07/31 06:00:48;0.00;0.00;0.62;0.00;0.00;0.62;4.10;1.87;;;24.50;31.40;;;;;;2265630;61;20589;-55
2021/07/31 06:03:16;0.00;0.00;0.62;0.00;0.00;0.62;2.37;1.60;;;24.50;31.40;;;;;;2265522;61;20599;-53
2021/07/31 06:05:42;0.00;0.00;0.62;0.00;0.00;0.62;2.70;1.80;;;24.50;31.40;;;;;;2265611;61;20381;-53
2021/07/31 06:08:09;0.00;0.00;0.62;0.00;0.00;0.62;2.40;1.77;;;24.50;31.40;;;;;;2265799;61;20358;-55
2021/07/31 06:10:35;0.00;0.00;0.62;0.00;0.00;0.62;2.33;1.73;;;24.50;31.40;;;;;;2265822;61;20362;-54
2021/07/31 06:13:04;0.00;0.00;0.62;0.00;0.00;0.62;2.50;1.70;;;24.50;31.40;;;;;;2265771;61;20698;-54
2021/07/31 06:15:31;0.00;0.00;0.62;0.00;0.00;0.62;3.63;1.37;;;24.50;31.40;;;;;;2265709;61;20472;-50
2021/07/31 06:17:58;0.00;0.00;0.62;0.00;0.00;0.62;3.07;1.57;;;24.50;31.40;;;;;;2265904;61;20350;-54
2021/07/31 06:20:26;0.00;0.00;0.62;0.00;0.00;0.62;2.97;1.87;;;24.50;31.50;;;;;;2265495;61;20350;-52
2021/07/31 06:22:53;0.00;0.00;0.62;0.00;0.00;0.62;5.07;2.00;;;24.50;31.50;;;;;;2265635;61;20370;-50
2021/07/31 06:25:20;0.00;0.00;0.62;0.00;0.00;0.62;3.70;1.60;;;24.50;31.50;;;;;;2265919;61;20374;-53
2021/07/31 06:27:48;0.00;0.00;0.62;0.00;0.00;0.62;5.33;1.90;;;24.50;31.50;;;;;;2265667;61;20382;-55
2021/07/31 06:30:15;0.00;0.00;0.62;0.00;0.00;0.62;2.37;1.30;;;24.50;31.60;;;;;;2265565;61;20362;-51
2021/07/31 06:32:42;0.00;0.00;0.62;0.00;0.00;0.62;2.63;2.03;;;24.50;31.60;;;;;;2265426;61;20361;-50
2021/07/31 06:35:09;0.00;0.00;0.62;0.00;0.00;0.62;2.60;1.87;;;24.50;31.70;;;;;;2265693;61;20576;-53
2021/07/31 06:37:37;0.00;0.00;0.62;0.00;0.00;0.62;6.10;1.70;;;24.50;31.70;;;;;;2265553;61;20698;-54
2021/07/31 06:40:04;0.00;0.00;0.62;0.00;0.00;0.62;2.03;1.37;;;24.50;31.70;;;;;;2265175;61;20390;-52
2021/07/31 06:42:31;0.00;0.00;0.62;0.00;0.00;0.62;6.63;2.10;;;24.40;31.70;;;;;;2265079;61;20360;-51
2021/07/31 06:44:58;0.00;0.00;0.62;0.00;0.00;0.62;3.10;1.40;;;24.40;31.70;;;;;;2265626;61;20357;-52
2021/07/31 06:47:24;0.00;0.00;0.62;0.00;0.00;0.62;2.70;1.70;;;24.40;31.70;;;;;;2265650;61;20459;-55
2021/07/31 06:49:51;0.00;0.00;0.62;0.00;0.00;0.62;5.33;1.97;;;24.40;31.70;;;;;;2265560;61;20650;-55
2021/07/31 06:52:17;0.00;0.00;0.62;0.00;0.00;0.62;2.40;1.50;;;24.40;31.80;;;;;;2264468;61;20404;-57
2021/07/31 06:54:46;0.00;0.00;0.62;0.00;0.00;0.62;3.10;1.83;;;24.40;31.80;;;;;;2265303;61;20346;-59
2021/07/31 06:57:12;0.00;0.00;0.62;0.00;0.00;0.62;2.03;1.20;;;24.40;31.80;;;;;;2265955;61;20386;-54
2021/07/31 06:59:39;0.00;0.00;0.62;0.00;0.00;0.62;4.27;2.20;;;24.40;31.90;;;;;;2265659;61;20354;-56
2021/07/31 07:02:06;0.00;0.00;0.62;0.00;0.00;0.62;4.20;1.30;;;24.40;31.90;;;;;;2265641;61;20351;-56
2021/07/31 07:04:33;0.00;0.00;0.62;0.00;0.00;0.62;5.03;1.90;;;24.50;31.90;;;;;;2266035;61;20358;-57
2021/07/31 07:06:59;0.00;0.00;0.62;0.00;0.00;0.62;2.43;1.53;;;24.50;31.90;;;;;;2265712;61;20606;-57
2021/07/31 07:09:26;0.00;0.00;0.62;0.00;0.00;0.62;2.85;1.80;;;24.50;31.80;;;;;;2265004;61;20358;-59
2021/07/31 07:11:56;0.00;0.00;0.62;0.00;0.00;0.62;3.93;2.00;;;24.50;31.90;;;;;;2265886;61;20589;-56
2021/07/31 07:14:23;0.00;0.00;0.62;0.00;0.00;0.62;7.40;1.60;;;24.50;31.80;;;;;;2265802;61;20365;-54
2021/07/31 07:16:49;0.00;0.00;0.62;0.00;0.00;0.62;2.47;1.67;;;24.60;31.80;;;;;;2265580;61;20735;-59
2021/07/31 07:19:16;0.00;0.00;0.62;0.00;0.00;0.62;2.03;1.70;;;24.60;31.80;;;;;;2265987;61;20365;-57
2021/07/31 07:21:43;0.00;0.00;0.62;0.00;0.00;0.62;2.00;1.53;;;24.60;31.80;;;;;;2265584;61;20350;-53
2021/07/31 07:24:10;0.00;0.00;0.62;0.00;0.00;0.62;2.93;1.40;;;24.60;31.80;;;;;;2265646;61;20350;-57
2021/07/31 07:26:37;0.00;0.00;0.62;0.00;0.00;0.62;2.00;1.40;;;24.60;31.70;;;;;;2265945;61;20693;-57
2021/07/31 07:29:05;0.00;0.00;0.62;0.00;0.00;0.62;2.67;1.47;;;24.60;31.80;;;;;;2265637;61;20407;-56
2021/07/31 07:31:32;0.00;0.00;0.62;0.00;0.00;0.62;2.13;1.43;;;24.60;31.80;;;;;;2265557;61;20701;-61
2021/07/31 07:33:59;0.00;0.00;0.62;0.00;0.00;0.62;2.57;1.83;;;24.70;31.90;;;;;;2265867;61;20589;-53
2021/07/31 07:36:25;0.00;0.00;0.62;0.00;0.00;0.62;3.57;1.50;;;24.70;31.90;;;;;;2265479;61;20366;-56
2021/07/31 07:38:52;0.00;0.00;0.62;0.00;0.00;0.62;2.07;1.63;;;24.70;31.90;;;;;;2265130;61;20384;-57
2021/07/31 07:41:19;0.00;0.00;0.62;0.00;0.00;0.62;5.80;1.80;;;24.70;31.80;;;;;;2265822;61;20429;-59
2021/07/31 07:43:45;0.00;0.00;0.62;0.00;0.00;0.62;2.73;1.70;;;24.70;31.80;;;;;;2265467;61;20687;-54
2021/07/31 07:46:15;0.00;0.00;0.62;0.00;0.00;0.62;2.03;1.67;;;24.70;31.80;;;;;;2265601;61;20416;-54
2021/07/31 07:48:42;0.00;0.00;0.62;0.00;0.00;0.62;2.80;1.70;;;24.70;31.80;;;;;;2265769;61;20362;-54
2021/07/31 07:51:09;0.00;0.00;0.62;0.00;0.00;0.62;2.53;1.90;;;24.80;31.80;;;;;;2265590;61;20372;-57
2021/07/31 07:53:36;0.00;0.00;0.62;0.00;0.00;0.62;2.07;1.37;;;24.80;31.80;;;;;;2265542;61;20354;-53
2021/07/31 07:56:03;0.00;0.00;0.62;0.00;0.00;0.62;2.17;1.57;;;24.80;31.80;;;;;;2265830;61;20378;-57
2021/07/31 07:58:30;0.00;0.00;0.62;0.00;0.00;0.62;3.73;1.60;;;24.80;31.70;;;;;;2265366;61;20388;-56
2021/07/31 08:00:57;0.00;0.00;0.62;0.00;0.00;0.62;2.20;1.30;;;24.80;31.70;;;;;;2265497;61;20471;-56
2021/07/31 08:03:24;0.00;0.00;0.62;0.00;0.00;0.62;2.70;1.73;;;24.80;31.70;;;;;;2265930;61;20391;-57
2021/07/31 08:05:51;0.00;0.00;0.62;0.00;0.00;0.62;2.37;1.60;;;24.80;31.70;;;;;;2265407;61;20373;-55
2021/07/31 08:08:18;0.00;0.00;0.62;0.00;0.00;0.62;2.87;1.60;;;24.80;31.70;;;;;;2265603;61;20704;-55
2021/07/31 08:10:45;0.00;0.00;0.62;0.00;0.00;0.62;2.73;1.60;;;24.80;31.70;;;;;;2265671;61;20358;-54
2021/07/31 08:13:11;0.00;0.00;0.62;0.00;0.00;0.62;1.93;1.50;;;24.80;31.70;;;;;;2265374;61;20358;-54
2021/07/31 08:15:38;0.00;0.00;0.62;0.00;0.00;0.62;2.30;1.40;;;24.80;31.70;;;;;;2265082;61;20377;-58
2021/07/31 08:18:04;0.00;0.00;0.62;0.00;0.00;0.62;3.13;1.60;;;24.80;32.40;;;;;;2265786;61;20432;-56
2021/07/31 08:20:32;0.00;0.00;0.62;0.00;0.00;0.62;2.30;1.33;;;24.90;31.80;;;;;;2265239;61;20718;-57
2021/07/31 08:22:59;0.00;0.00;0.62;0.00;0.00;0.62;2.50;1.43;;;24.90;31.80;;;;;;2265452;61;20392;-54
2021/07/31 08:25:26;0.00;0.00;0.62;0.00;0.00;0.62;6.57;1.60;;;24.90;31.80;;;;;;2265787;61;20400;-55
2021/07/31 08:27:52;0.00;0.00;0.62;0.00;0.00;0.62;3.73;1.60;;;24.90;31.80;;;;;;2265443;61;20658;-55
2021/07/31 08:30:19;0.00;0.00;0.62;0.00;0.00;0.62;2.83;1.27;;;24.90;31.80;;;;;;2265420;61;20569;-56
2021/07/31 08:32:45;0.00;0.00;0.62;0.00;0.00;0.62;1.80;1.40;;;24.90;31.80;;;;;;2265812;61;20358;-58
2021/07/31 08:35:12;0.00;0.00;0.62;0.00;0.00;0.62;2.50;1.53;;;24.90;31.70;;;;;;2265314;61;20374;-56
2021/07/31 08:37:40;0.00;0.00;0.62;0.00;0.00;0.62;1.90;1.57;;;25.00;31.80;;;;;;2265577;61;20361;-55
2021/07/31 08:40:09;0.00;0.00;0.62;0.00;0.00;0.62;2.63;1.73;;;25.00;31.90;;;;;;2265580;61;20350;-54
2021/07/31 08:42:37;0.00;0.00;0.62;0.00;0.00;0.62;3.80;1.60;;;25.00;31.90;;;;;;2265337;61;20361;-57
2021/07/31 08:45:06;0.00;0.00;0.62;0.00;0.00;0.62;2.57;1.97;;;25.00;31.90;;;;;;2265413;61;20550;-56
2021/07/31 08:47:33;0.00;0.00;0.62;0.00;0.00;0.62;2.53;1.60;;;25.00;31.90;;;;;;2265763;61;20382;-55
2021/07/31 08:50:02;0.00;0.00;0.62;0.00;0.00;0.62;2.53;1.20;;;25.00;31.80;;;;;;2265240;61;20381;-58
2021/07/31 08:52:32;0.00;0.00;0.62;0.00;0.00;0.62;1.90;1.40;;;25.00;31.80;;;;;;2265569;61;20441;-53
2021/07/31 08:55:00;0.00;0.00;0.62;0.00;0.00;0.62;2.93;1.80;;;25.00;31.80;;;;;;2265064;61;20361;-58
2021/07/31 08:57:27;0.00;0.00;0.62;0.00;0.00;0.62;1.87;1.27;;;25.10;31.90;;;;;;2265368;61;20362;-55
2021/07/31 08:59:53;0.00;0.00;0.62;0.00;0.00;0.62;2.03;1.47;;;25.10;31.90;;;;;;2265562;61;20350;-58
2021/07/31 09:02:20;0.00;0.00;0.62;0.00;0.00;0.62;2.40;1.53;;;25.10;31.90;;;;;;2266388;61;20471;-56
2021/07/31 09:04:50;0.00;0.00;0.62;0.00;0.00;0.62;2.37;1.60;;;25.10;31.90;;;;;;2266012;61;20574;-57
2021/07/31 09:07:16;0.00;0.00;0.62;0.00;0.00;0.62;5.60;1.83;;;25.10;31.90;;;;;;2266120;61;20596;-57
2021/07/31 09:09:43;0.00;0.00;0.62;0.00;0.00;0.62;2.40;1.63;;;25.10;31.80;;;;;;2266391;61;20369;-56
2021/07/31 09:12:11;0.00;0.00;0.62;0.00;0.00;0.62;2.47;1.53;;;25.20;31.90;;;;;;2265982;61;20358;-59
2021/07/31 09:14:46;0.00;0.00;0.62;0.00;0.00;0.62;4.33;1.80;;;25.20;32.00;;;;;;2266273;61;20354;-57
2021/07/31 09:17:24;0.00;0.00;0.62;0.00;0.00;0.62;3.40;1.60;;;25.20;32.00;;;;;;2266293;61;20361;-56
2021/07/31 09:19:51;0.00;0.00;0.62;0.00;0.00;0.62;3.00;1.57;;;25.20;32.00;;;;;;2265925;61;20350;-57
2021/07/31 09:22:18;0.00;0.00;0.62;0.00;0.00;0.62;2.80;1.90;;;25.20;32.00;;;;;;2265550;61;20365;-59
2021/07/31 09:25:04;0.00;0.00;0.62;0.00;0.00;0.62;4.10;2.00;;;25.20;32.00;;;;;;2266382;61;20429;-59
2021/07/31 09:27:33;0.00;0.00;0.62;0.00;0.00;0.62;3.93;1.83;;;25.30;32.00;;;;;;2266152;61;20586;-58
2021/07/31 09:30:03;0.00;0.00;0.62;0.00;0.00;0.62;2.23;1.77;;;25.30;32.00;;;;;;2265501;61;20358;-57
2021/07/31 09:32:38;0.00;0.00;0.62;0.00;0.00;0.62;2.23;1.77;;;25.30;32.00;;;;;;2266357;61;20682;-57
2021/07/31 09:35:20;0.00;0.00;0.62;0.00;0.00;0.62;3.67;1.57;;;25.40;32.10;;;;;;2265970;61;20366;-57
2021/07/31 09:37:48;0.00;0.00;0.62;0.00;0.00;0.62;2.50;2.17;;;25.40;32.00;;;;;;2265613;61;20350;-57
2021/07/31 09:40:25;0.00;0.00;0.62;0.00;0.00;0.62;2.63;1.63;;;25.40;32.00;;;;;;2265526;61;21040;-55
2021/07/31 09:42:53;0.00;0.00;0.62;0.00;0.00;0.62;2.87;2.10;;;25.40;32.00;;;;;;2265614;61;20694;-59
2021/07/31 09:45:32;0.00;0.00;0.62;0.00;0.00;0.62;2.47;1.60;;;25.40;32.00;;;;;;2265712;61;20373;-58
2021/07/31 09:48:01;0.00;0.00;0.62;0.00;0.00;0.62;2.80;1.77;;;25.40;32.00;;;;;;2266253;61;20391;-56